Texhoma, OK (73949)

6:59 PM CDT on July 29, 2014 (GMT -0500)
MesoWest TXHOMA TX US UPR (MUP424) Elev 3499 ft | 36.49 °N, 101.80 °W | Change Station
Active Advisory: Flash Flood Watch

Current weather conditions updated 1 hour ago

Clear
Clear
80 °F
Feels Like 78 °F
N
Wind Variable Wind from North
Gusts 0.0 mph

Tomorrow is forecast to be Much Cooler than today. A few thunderstorms possible.

Today
High -- | Low -- °F
--% Chance of Precip.
Yesterday
High -- | Low -- °F
Precip. -- in
6:51 AM 8:55 PM
Waxing Crescent, 8% visible
Pressure 29.94 in
Visibility 10.0 miles
Clouds Clear
Heat Index 78 °F
Dew Point Not available.
Humidity Not available.
Rainfall -999.00 in
Snow Depth Not available.
UV 2 out of 12
Pollen 1.20 out of 12
Air Quality Not available.
Flu Activity Not available.
METAR KGUY 292353Z AUTO 16013KT 10SM CLR 27/18 A3006 RMK AO2 SLP136 T02670178 10272 20222 56022

More Conditions Fewer Conditions

Pressure 29.94 in
Visibility 10.0 miles
Clouds Clear
Heat Index 78 °F
Dew Point Not available.
Humidity Not available.
Rainfall -999.00 in
Snow Depth Not available.
UV 2 out of 12
Pollen 1.20 out of 12
Air Quality Not available.
Flu Activity Not available.
METAR KGUY 292353Z AUTO 16013KT 10SM CLR 27/18 A3006 RMK AO2 SLP136 T02670178 10272 20222 56022

More Conditions Fewer Conditions

10-Day Weather Forecast

Almanac

Astronomy

Jul. 29, 2014 Rise Set
Actual Time 6:51 AM CDT 8:55 PM CDT
Civil Twilight 6:22 AM CDT 9:24 PM CDT
Nautical Twilight 5:47 AM CDT 9:59 PM CDT
Astronomical Twilight 5:09 AM CDT 10:36 PM CDT
Moon 9:23 AM CDT 10:15 PM CDT
Length of Visible Light 15h 01m
Length of Day
14h 04m
Tomorrow will be 1m 40s shorter.
Waxing Crescent, 8% of the Moon is Illuminated
Today
Waxing Crescent
Aug 3
First Quarter
Aug 10
Full
Aug 17
Last Quarter
Aug 25
New

Today's Extremes

State Highs State Lows

Community

WunderPhotos

Upload Photos

1,738,916 photos uploaded!

Nearby

Snow Depth

Station Depth Elevation
No new snow has been reported.

Earthquake Activity

City Distance Mag. Time & Date
No recent earthquake activity has been reported nearby.
Minimum magnitude displayed is 2.5.

Coastal Water Temperatures

Place Temperature
No Stations Reporting

Nearby Weather Stations

Station Location Temp. Heat Index Dew Point Humidity Wind Precip. Elev Updated Type
MesoWest TXHOMA , Texhoma, OK 80 °F 78 °F - - North  at  - 0.00 in / hr 3499 ft 5:20 PM CDT MADIS
MesoWest GOODWL , Goodwell, OK 78 °F 76 °F - - North  at  - 0.00 in / hr 3228 ft 5:40 PM CDT MADIS
MesoWest STEVNS , Stratford, TX 76 °F 74 °F - - North  at  - 0.00 in / hr 3611 ft 5:10 PM CDT MADIS

Show More Stations Show Fewer Stations